AIRPORT ID: 3S4

DATE: 2024-05-27 ZULU TIME: 19.55 LOCAL TIME: 12.55


METAR K3S4 271955Z AUTO 00000KT 10SM 24/16 A3005

ALTIMETER: A3005 Q1018

DENSITY ALT: 2600 Ft

WIND DIRECT: 240

WIND SPEED: 0 Gust

WIND CONDITIONS:

VISIBILTY: 10SM 9999M

TEMPERATURE: 76 F 24 C

DEW POINT: 61 F 16 C

HUMID: 59%

LCL: 3,000-5,000 feet

RADIO CHECK: 0

ADVISARIES: 0

GREETINGS: 0

CONVERSATIONS: 25